ADDS METAR Data INFO
IDs: Format: Raw Decoded Include TAF

Data at: 2041 UTC 20 Jul 2018

KCVN 201956Z AUTO 19009KT 10SM CLR 37/10 A3009 RMK AO2 SLP133 T03670100
KCVN 201856Z AUTO 17014G23KT 10SM CLR 36/11 A3011 RMK AO2 SLP137 T03610106
KCVN 201756Z AUTO 23012G23KT 10SM CLR 35/12 A3012 RMK AO2 SLP141 T03500117 10356 20211 56003
KCVN 201656Z AUTO 21013KT 10SM CLR 34/12 A3013 RMK AO2 SLP146 T03390117
KCVN 201556Z AUTO 23014KT 10SM CLR 32/12 A3012 RMK AO2 SLP147 T03220117
KCVN 201456Z AUTO 23011KT 10SM CLR 29/12 A3013 RMK AO2 SLP150 T02940122 51009
KCVN 201356Z AUTO 24009KT 10SM CLR 27/11 A3012 RMK AO2 SLP144 T02670111 TSNO
KCVN 201256Z AUTO 26008KT 10SM CLR 23/10 A3011 RMK AO2 SLP142 T02280100
KCVN 201156Z AUTO 24009KT 10SM CLR 21/09 A3010 RMK AO2 SLP138 T02110089 10261 20200 53009
KCVN 201056Z AUTO 25009KT 10SM CLR 22/08 A3008 RMK AO2 SLP131 T02170083
KCVN 200956Z AUTO 25007KT 10SM CLR 22/08 A3007 RMK AO2 SLP129 T02170083
KCVN 200856Z AUTO 24008KT 10SM CLR 22/09 A3007 RMK AO2 SLP126 T02170089 55002
KCVN 200756Z AUTO 25008KT 10SM CLR 22/11 A3006 RMK AO2 SLP121 T02220106
KCVN 200656Z AUTO 22006KT 10SM CLR 24/11 A3007 RMK AO2 SLP123 T02390106 403720189
KCVN 200556Z AUTO 20003KT 10SM CLR 26/09 A3007 RMK AO2 SLP124 T02610094 10356 20233 51013
KCVN 200456Z AUTO 09004KT 10SM CLR 24/12 A3007 RMK AO2 SLP127 T02390122
KCVN 200356Z AUTO 17006KT 10SM CLR 24/11 A3004 RMK AO2 SLP121 T02440106
KCVN 200256Z AUTO 16007KT 10SM CLR 26/11 A3003 RMK AO2 SLP117 T02610111 53010
KCVN 200156Z AUTO 15008KT 10SM CLR 31/10 A3001 RMK AO2 SLP109 T03060100
KCVN 200056Z AUTO 16011KT 10SM CLR 34/11 A3000 RMK AO2 SLP107 T03390106
KCVN 192356Z AUTO 16011KT 10SM CLR 36/11 A3000 RMK AO2 SLP104 T03560111 10372 20344 56011
KCVN 192256Z AUTO 15007KT 10SM CLR 37/11 A3000 RMK AO2 SLP103 T03670111
KCVN 192156Z AUTO 15012KT 10SM CLR 36/11 A3002 RMK AO2 SLP111 T03560106
KCVN 192056Z AUTO 17012G18KT 10SM CLR 37/11 A3003 RMK AO2 SLP113 T03720111 58014
KCVN 191956Z AUTO 20010KT 10SM CLR 37/13 A3005 RMK AO2 SLP116 T03720128
KCVN 191856Z AUTO VRB06KT 10SM CLR 36/11 A3007 RMK AO2 SLP126 T03610111
KCVN 191756Z AUTO 15012KT 10SM CLR 36/14 A3008 RMK AO2 SLP128 T03560144 10356 20189 58008
KCVN 191656Z AUTO 15010KT 10SM CLR 33/14 A3010 RMK AO2 SLP137 T03330144
KCVN 191556Z AUTO 21006KT 10SM CLR 31/14 A3010 RMK AO2 SLP138 T03110139
KCVN 191456Z AUTO 22006KT 10SM CLR 28/14 A3010 RMK AO2 SLP140 T02830139 51012
KCVN 191356Z AUTO 22005KT 10SM CLR 26/14 A3010 RMK AO2 SLP140 T02560139
KCVN 191156Z AUTO 19003KT 10SM CLR 19/13 A3006 RMK AO2 SLP131 70014 T01940128 10239 20189 53004
KCVN 191056Z AUTO 24005KT 10SM CLR 19/14 A3005 RMK AO2 SLP123 T01940139
KCVN 190956Z AUTO 24005KT 10SM CLR 20/14 A3005 RMK AO2 SLP122 T02000139
KCVN 190856Z AUTO 21005KT 10SM CLR 21/14 A3005 RMK AO2 SLP121 T02110144 56004